Alpha, Michigan
Current Conditions -  °F | °C
As of 3:54 AM on Saturday 25 Oct 2014 (Local Time) from KIMT Reporting Station
Clear Clear  
Wind Chill: 12°   Ceiling: Unl
Heat Index: 12°   Visibility: 10mi
Dew Point:   Wind: 12mph
Humidity: 80%   Direction: 270°W
Pressure: 29.72"   Gusts: NA
Location:  46.04°N, 88.38°W
Report Text: KIMT 250854Z AUTO 27010KT 10SM CLR 12/09 A2972 RMK AO2 SLP067 T01220089 58007
Loading
Personal Weather Stations






























Interactive Weather Map
Tropical Storm Tracking
New forecast layout! Learn more

10-Day Weather Forecast

Advertisements
Track Severe Weather on mobile